sensor_id;sensor_type;location;lat;lon;timestamp;P1;durP1;ratioP1;P2;durP2;ratioP2
7045;SDS011;3564;53.326;10.356;2023-05-10T00:01:23;3.37;;;3.07;;
7045;SDS011;3564;53.326;10.356;2023-05-10T00:03:48;4.00;;;3.20;;
7045;SDS011;3564;53.326;10.356;2023-05-10T00:06:14;4.37;;;3.10;;
7045;SDS011;3564;53.326;10.356;2023-05-10T00:08:40;6.03;;;3.50;;
7045;SDS011;3564;53.326;10.356;2023-05-10T00:11:05;3.20;;;2.90;;
7045;SDS011;3564;53.326;10.356;2023-05-10T00:13:31;6.47;;;3.57;;
7045;SDS011;3564;53.326;10.356;2023-05-10T00:15:57;7.93;;;3.50;;
7045;SDS011;3564;53.326;10.356;2023-05-10T00:18:22;8.77;;;3.47;;
7045;SDS011;3564;53.326;10.356;2023-05-10T00:20:48;8.37;;;3.20;;
7045;SDS011;3564;53.326;10.356;2023-05-10T00:23:14;5.93;;;3.63;;
7045;SDS011;3564;53.326;10.356;2023-05-10T00:25:39;10.43;;;4.00;;
7045;SDS011;3564;53.326;10.356;2023-05-10T00:28:05;14.97;;;4.40;;
7045;SDS011;3564;53.326;10.356;2023-05-10T00:30:31;6.63;;;3.20;;
7045;SDS011;3564;53.326;10.356;2023-05-10T00:32:56;6.23;;;3.63;;
7045;SDS011;3564;53.326;10.356;2023-05-10T00:35:22;5.03;;;3.30;;
7045;SDS011;3564;53.326;10.356;2023-05-10T00:37:48;8.13;;;3.47;;
7045;SDS011;3564;53.326;10.356;2023-05-10T00:40:13;7.90;;;3.53;;
7045;SDS011;3564;53.326;10.356;2023-05-10T00:42:39;5.03;;;3.43;;
7045;SDS011;3564;53.326;10.356;2023-05-10T00:45:05;4.43;;;3.07;;
7045;SDS011;3564;53.326;10.356;2023-05-10T00:47:31;6.13;;;3.30;;
7045;SDS011;3564;53.326;10.356;2023-05-10T00:49:57;4.57;;;4.03;;
7045;SDS011;3564;53.326;10.356;2023-05-10T00:52:25;4.93;;;3.70;;
7045;SDS011;3564;53.326;10.356;2023-05-10T00:54:52;4.30;;;3.27;;
7045;SDS011;3564;53.326;10.356;2023-05-10T00:57:17;4.80;;;3.47;;
7045;SDS011;3564;53.326;10.356;2023-05-10T00:59:43;4.87;;;3.73;;
7045;SDS011;3564;53.326;10.356;2023-05-10T01:02:09;5.23;;;3.47;;
7045;SDS011;3564;53.326;10.356;2023-05-10T01:04:35;5.93;;;3.20;;
7045;SDS011;3564;53.326;10.356;2023-05-10T01:07:02;4.43;;;3.40;;
7045;SDS011;3564;53.326;10.356;2023-05-10T01:09:27;4.47;;;3.27;;
7045;SDS011;3564;53.326;10.356;2023-05-10T01:11:53;8.43;;;3.63;;
7045;SDS011;3564;53.326;10.356;2023-05-10T01:14:21;4.63;;;3.50;;
7045;SDS011;3564;53.326;10.356;2023-05-10T01:16:47;7.60;;;3.10;;
7045;SDS011;3564;53.326;10.356;2023-05-10T01:19:23;4.90;;;3.30;;
7045;SDS011;3564;53.326;10.356;2023-05-10T01:24:38;4.47;;;3.73;;
7045;SDS011;3564;53.326;10.356;2023-05-10T01:27:34;4.03;;;3.60;;
7045;SDS011;3564;53.326;10.356;2023-05-10T01:35:55;4.00;;;3.60;;
7045;SDS011;3564;53.326;10.356;2023-05-10T01:41:16;3.67;;;3.10;;
7045;SDS011;3564;53.326;10.356;2023-05-10T01:44:20;3.60;;;3.30;;
7045;SDS011;3564;53.326;10.356;2023-05-10T01:46:58;5.03;;;3.33;;
7045;SDS011;3564;53.326;10.356;2023-05-10T01:49:32;4.67;;;3.50;;
7045;SDS011;3564;53.326;10.356;2023-05-10T01:52:06;4.37;;;3.20;;
7045;SDS011;3564;53.326;10.356;2023-05-10T01:54:44;4.00;;;3.10;;
7045;SDS011;3564;53.326;10.356;2023-05-10T01:57:32;12.53;;;3.57;;
7045;SDS011;3564;53.326;10.356;2023-05-10T01:59:59;3.93;;;3.53;;
7045;SDS011;3564;53.326;10.356;2023-05-10T02:02:28;4.33;;;3.00;;
7045;SDS011;3564;53.326;10.356;2023-05-10T02:04:58;3.50;;;3.17;;
7045;SDS011;3564;53.326;10.356;2023-05-10T02:07:24;5.27;;;3.30;;
7045;SDS011;3564;53.326;10.356;2023-05-10T02:09:53;3.37;;;3.07;;
7045;SDS011;3564;53.326;10.356;2023-05-10T02:12:20;5.47;;;3.47;;
7045;SDS011;3564;53.326;10.356;2023-05-10T02:14:48;7.63;;;3.40;;
7045;SDS011;3564;53.326;10.356;2023-05-10T02:17:16;3.50;;;3.07;;
7045;SDS011;3564;53.326;10.356;2023-05-10T02:19:42;5.63;;;3.30;;
7045;SDS011;3564;53.326;10.356;2023-05-10T02:22:09;5.23;;;3.37;;
7045;SDS011;3564;53.326;10.356;2023-05-10T02:24:35;4.90;;;3.50;;
7045;SDS011;3564;53.326;10.356;2023-05-10T02:27:03;4.80;;;3.63;;
7045;SDS011;3564;53.326;10.356;2023-05-10T02:29:30;8.63;;;4.03;;
7045;SDS011;3564;53.326;10.356;2023-05-10T02:31:57;4.97;;;3.53;;
7045;SDS011;3564;53.326;10.356;2023-05-10T02:34:23;6.43;;;3.53;;
7045;SDS011;3564;53.326;10.356;2023-05-10T02:36:51;8.73;;;3.33;;
7045;SDS011;3564;53.326;10.356;2023-05-10T02:39:18;6.83;;;3.90;;
7045;SDS011;3564;53.326;10.356;2023-05-10T02:41:46;9.27;;;3.67;;
7045;SDS011;3564;53.326;10.356;2023-05-10T02:44:14;9.47;;;3.50;;
7045;SDS011;3564;53.326;10.356;2023-05-10T02:46:43;7.03;;;3.53;;
7045;SDS011;3564;53.326;10.356;2023-05-10T02:49:09;8.13;;;3.83;;
7045;SDS011;3564;53.326;10.356;2023-05-10T02:51:36;5.77;;;3.60;;
7045;SDS011;3564;53.326;10.356;2023-05-10T02:54:12;10.83;;;3.90;;
7045;SDS011;3564;53.326;10.356;2023-05-10T02:56:48;7.83;;;4.20;;
7045;SDS011;3564;53.326;10.356;2023-05-10T02:59:18;15.73;;;4.40;;
7045;SDS011;3564;53.326;10.356;2023-05-10T03:01:44;17.60;;;4.13;;
7045;SDS011;3564;53.326;10.356;2023-05-10T03:04:10;18.00;;;4.30;;
7045;SDS011;3564;53.326;10.356;2023-05-10T03:06:35;7.07;;;3.53;;
7045;SDS011;3564;53.326;10.356;2023-05-10T03:09:01;17.27;;;4.03;;
7045;SDS011;3564;53.326;10.356;2023-05-10T03:16:56;12.43;;;4.60;;
7045;SDS011;3564;53.326;10.356;2023-05-10T03:22:45;15.10;;;4.33;;
7045;SDS011;3564;53.326;10.356;2023-05-10T03:25:15;15.97;;;5.00;;
7045;SDS011;3564;53.326;10.356;2023-05-10T03:27:44;18.20;;;4.30;;
7045;SDS011;3564;53.326;10.356;2023-05-10T03:30:11;13.63;;;4.23;;
7045;SDS011;3564;53.326;10.356;2023-05-10T03:32:56;6.73;;;3.70;;
7045;SDS011;3564;53.326;10.356;2023-05-10T03:35:21;7.07;;;3.83;;
7045;SDS011;3564;53.326;10.356;2023-05-10T03:37:48;6.50;;;3.70;;
7045;SDS011;3564;53.326;10.356;2023-05-10T03:40:14;4.30;;;3.70;;
7045;SDS011;3564;53.326;10.356;2023-05-10T03:42:59;3.70;;;3.40;;
7045;SDS011;3564;53.326;10.356;2023-05-10T03:45:25;5.30;;;3.57;;
7045;SDS011;3564;53.326;10.356;2023-05-10T03:47:50;4.83;;;3.67;;
7045;SDS011;3564;53.326;10.356;2023-05-10T03:50:16;4.40;;;3.67;;
7045;SDS011;3564;53.326;10.356;2023-05-10T03:52:42;6.13;;;4.20;;
7045;SDS011;3564;53.326;10.356;2023-05-10T03:55:08;5.67;;;3.30;;
7045;SDS011;3564;53.326;10.356;2023-05-10T03:57:34;5.03;;;3.87;;
7045;SDS011;3564;53.326;10.356;2023-05-10T03:59:59;4.53;;;3.67;;
7045;SDS011;3564;53.326;10.356;2023-05-10T04:02:25;5.03;;;3.90;;
7045;SDS011;3564;53.326;10.356;2023-05-10T04:04:50;5.27;;;4.13;;
7045;SDS011;3564;53.326;10.356;2023-05-10T04:07:16;8.27;;;3.87;;
7045;SDS011;3564;53.326;10.356;2023-05-10T04:09:42;5.00;;;3.83;;
7045;SDS011;3564;53.326;10.356;2023-05-10T04:12:08;4.80;;;3.87;;
7045;SDS011;3564;53.326;10.356;2023-05-10T04:14:35;5.70;;;4.20;;
7045;SDS011;3564;53.326;10.356;2023-05-10T04:17:20;4.40;;;3.90;;
7045;SDS011;3564;53.326;10.356;2023-05-10T04:19:46;4.47;;;3.70;;
7045;SDS011;3564;53.326;10.356;2023-05-10T04:22:11;4.87;;;4.07;;
7045;SDS011;3564;53.326;10.356;2023-05-10T04:24:37;6.53;;;4.00;;
7045;SDS011;3564;53.326;10.356;2023-05-10T04:27:02;4.50;;;3.77;;
7045;SDS011;3564;53.326;10.356;2023-05-10T04:29:28;3.70;;;3.10;;
7045;SDS011;3564;53.326;10.356;2023-05-10T04:31:54;5.23;;;3.63;;
7045;SDS011;3564;53.326;10.356;2023-05-10T04:34:21;4.80;;;3.80;;
7045;SDS011;3564;53.326;10.356;2023-05-10T04:36:47;5.60;;;3.60;;
7045;SDS011;3564;53.326;10.356;2023-05-10T04:39:13;4.33;;;3.53;;
7045;SDS011;3564;53.326;10.356;2023-05-10T04:41:38;6.53;;;3.70;;
7045;SDS011;3564;53.326;10.356;2023-05-10T04:44:04;5.67;;;4.00;;
7045;SDS011;3564;53.326;10.356;2023-05-10T04:46:30;6.77;;;3.93;;
7045;SDS011;3564;53.326;10.356;2023-05-10T04:48:55;7.07;;;3.53;;
7045;SDS011;3564;53.326;10.356;2023-05-10T04:51:21;5.20;;;3.77;;
7045;SDS011;3564;53.326;10.356;2023-05-10T04:53:46;4.10;;;3.43;;
7045;SDS011;3564;53.326;10.356;2023-05-10T04:56:12;5.00;;;3.87;;
7045;SDS011;3564;53.326;10.356;2023-05-10T04:58:37;4.73;;;3.47;;
7045;SDS011;3564;53.326;10.356;2023-05-10T05:01:07;5.13;;;3.67;;
7045;SDS011;3564;53.326;10.356;2023-05-10T05:03:33;5.80;;;3.70;;
7045;SDS011;3564;53.326;10.356;2023-05-10T05:05:59;3.97;;;3.47;;
7045;SDS011;3564;53.326;10.356;2023-05-10T05:08:24;4.83;;;3.70;;
7045;SDS011;3564;53.326;10.356;2023-05-10T05:10:50;4.90;;;3.93;;
7045;SDS011;3564;53.326;10.356;2023-05-10T05:13:16;6.07;;;3.70;;
7045;SDS011;3564;53.326;10.356;2023-05-10T05:15:41;6.63;;;3.90;;
7045;SDS011;3564;53.326;10.356;2023-05-10T05:18:07;4.50;;;3.87;;
7045;SDS011;3564;53.326;10.356;2023-05-10T05:20:33;4.03;;;3.57;;
7045;SDS011;3564;53.326;10.356;2023-05-10T05:23:01;5.70;;;3.57;;
7045;SDS011;3564;53.326;10.356;2023-05-10T05:25:27;10.47;;;3.67;;
7045;SDS011;3564;53.326;10.356;2023-05-10T05:27:53;5.07;;;3.50;;
7045;SDS011;3564;53.326;10.356;2023-05-10T05:30:18;6.23;;;3.10;;
7045;SDS011;3564;53.326;10.356;2023-05-10T05:32:44;4.60;;;3.67;;
7045;SDS011;3564;53.326;10.356;2023-05-10T05:35:12;4.77;;;3.80;;
7045;SDS011;3564;53.326;10.356;2023-05-10T05:37:37;5.13;;;3.47;;
7045;SDS011;3564;53.326;10.356;2023-05-10T05:40:03;6.40;;;3.83;;
7045;SDS011;3564;53.326;10.356;2023-05-10T05:42:30;6.97;;;3.70;;
7045;SDS011;3564;53.326;10.356;2023-05-10T05:44:56;5.27;;;3.63;;
7045;SDS011;3564;53.326;10.356;2023-05-10T05:47:21;4.13;;;3.57;;
7045;SDS011;3564;53.326;10.356;2023-05-10T05:49:47;5.20;;;3.53;;
7045;SDS011;3564;53.326;10.356;2023-05-10T05:52:12;6.40;;;3.63;;
7045;SDS011;3564;53.326;10.356;2023-05-10T05:54:38;5.07;;;3.53;;
7045;SDS011;3564;53.326;10.356;2023-05-10T05:57:04;4.40;;;3.20;;
7045;SDS011;3564;53.326;10.356;2023-05-10T05:59:29;5.63;;;3.83;;
7045;SDS011;3564;53.326;10.356;2023-05-10T06:01:55;9.13;;;3.70;;
7045;SDS011;3564;53.326;10.356;2023-05-10T06:04:20;5.67;;;3.87;;
7045;SDS011;3564;53.326;10.356;2023-05-10T06:06:46;5.90;;;3.47;;
7045;SDS011;3564;53.326;10.356;2023-05-10T06:09:11;4.63;;;3.60;;
7045;SDS011;3564;53.326;10.356;2023-05-10T06:11:37;5.57;;;3.77;;
7045;SDS011;3564;53.326;10.356;2023-05-10T06:14:03;4.10;;;3.70;;
7045;SDS011;3564;53.326;10.356;2023-05-10T06:16:29;4.07;;;3.47;;
7045;SDS011;3564;53.326;10.356;2023-05-10T06:18:56;3.90;;;3.47;;
7045;SDS011;3564;53.326;10.356;2023-05-10T06:21:21;7.63;;;3.67;;
7045;SDS011;3564;53.326;10.356;2023-05-10T06:23:47;4.73;;;3.80;;
7045;SDS011;3564;53.326;10.356;2023-05-10T06:26:13;5.70;;;3.60;;
7045;SDS011;3564;53.326;10.356;2023-05-10T06:28:38;5.57;;;3.53;;
7045;SDS011;3564;53.326;10.356;2023-05-10T06:31:05;5.40;;;3.57;;
7045;SDS011;3564;53.326;10.356;2023-05-10T06:33:31;8.20;;;3.63;;
7045;SDS011;3564;53.326;10.356;2023-05-10T06:35:57;5.07;;;3.23;;
7045;SDS011;3564;53.326;10.356;2023-05-10T06:38:22;6.57;;;3.70;;
7045;SDS011;3564;53.326;10.356;2023-05-10T06:40:48;4.20;;;3.47;;
7045;SDS011;3564;53.326;10.356;2023-05-10T06:43:13;5.13;;;4.10;;
7045;SDS011;3564;53.326;10.356;2023-05-10T06:45:39;4.77;;;3.27;;
7045;SDS011;3564;53.326;10.356;2023-05-10T06:48:06;4.43;;;3.60;;
7045;SDS011;3564;53.326;10.356;2023-05-10T06:50:32;4.20;;;3.50;;
7045;SDS011;3564;53.326;10.356;2023-05-10T06:52:58;4.00;;;3.30;;
7045;SDS011;3564;53.326;10.356;2023-05-10T06:55:24;4.20;;;3.27;;
7045;SDS011;3564;53.326;10.356;2023-05-10T06:57:51;5.17;;;3.43;;
7045;SDS011;3564;53.326;10.356;2023-05-10T07:00:17;5.47;;;3.43;;
7045;SDS011;3564;53.326;10.356;2023-05-10T07:02:43;6.20;;;3.30;;
7045;SDS011;3564;53.326;10.356;2023-05-10T07:05:10;3.87;;;3.33;;
7045;SDS011;3564;53.326;10.356;2023-05-10T07:07:36;5.57;;;3.43;;
7045;SDS011;3564;53.326;10.356;2023-05-10T07:10:02;6.13;;;3.30;;
7045;SDS011;3564;53.326;10.356;2023-05-10T07:12:28;4.03;;;3.60;;
7045;SDS011;3564;53.326;10.356;2023-05-10T07:14:54;5.60;;;3.43;;
7045;SDS011;3564;53.326;10.356;2023-05-10T07:17:20;3.47;;;3.17;;
7045;SDS011;3564;53.326;10.356;2023-05-10T07:19:45;4.70;;;3.10;;
7045;SDS011;3564;53.326;10.356;2023-05-10T07:22:11;5.27;;;3.67;;
7045;SDS011;3564;53.326;10.356;2023-05-10T07:24:37;4.40;;;3.10;;
7045;SDS011;3564;53.326;10.356;2023-05-10T07:27:02;5.40;;;4.00;;
7045;SDS011;3564;53.326;10.356;2023-05-10T07:29:29;6.00;;;3.40;;
7045;SDS011;3564;53.326;10.356;2023-05-10T07:31:57;4.43;;;3.13;;
7045;SDS011;3564;53.326;10.356;2023-05-10T07:34:25;5.70;;;3.50;;
7045;SDS011;3564;53.326;10.356;2023-05-10T07:36:51;4.27;;;3.50;;
7045;SDS011;3564;53.326;10.356;2023-05-10T07:39:16;5.87;;;3.57;;
7045;SDS011;3564;53.326;10.356;2023-05-10T07:41:42;5.47;;;4.03;;
7045;SDS011;3564;53.326;10.356;2023-05-10T07:44:08;5.03;;;3.50;;
7045;SDS011;3564;53.326;10.356;2023-05-10T07:46:33;6.60;;;3.50;;
7045;SDS011;3564;53.326;10.356;2023-05-10T07:48:59;5.93;;;3.20;;
7045;SDS011;3564;53.326;10.356;2023-05-10T07:51:24;5.07;;;3.60;;
7045;SDS011;3564;53.326;10.356;2023-05-10T07:53:50;5.83;;;3.10;;
7045;SDS011;3564;53.326;10.356;2023-05-10T07:56:20;4.47;;;3.30;;
7045;SDS011;3564;53.326;10.356;2023-05-10T07:58:55;3.77;;;3.37;;
7045;SDS011;3564;53.326;10.356;2023-05-10T08:01:21;4.40;;;3.50;;
7045;SDS011;3564;53.326;10.356;2023-05-10T08:03:47;5.13;;;3.67;;
7045;SDS011;3564;53.326;10.356;2023-05-10T08:06:14;8.40;;;3.80;;
7045;SDS011;3564;53.326;10.356;2023-05-10T08:08:40;4.97;;;3.60;;
7045;SDS011;3564;53.326;10.356;2023-05-10T08:11:06;5.97;;;3.60;;
7045;SDS011;3564;53.326;10.356;2023-05-10T08:13:32;4.67;;;3.70;;
7045;SDS011;3564;53.326;10.356;2023-05-10T08:15:58;3.67;;;3.37;;
7045;SDS011;3564;53.326;10.356;2023-05-10T08:18:25;3.70;;;3.30;;
7045;SDS011;3564;53.326;10.356;2023-05-10T08:20:51;7.57;;;3.50;;
7045;SDS011;3564;53.326;10.356;2023-05-10T08:23:17;4.20;;;3.20;;
7045;SDS011;3564;53.326;10.356;2023-05-10T08:25:43;3.83;;;3.40;;
7045;SDS011;3564;53.326;10.356;2023-05-10T08:28:11;6.80;;;3.33;;
7045;SDS011;3564;53.326;10.356;2023-05-10T08:30:37;5.07;;;3.47;;
7045;SDS011;3564;53.326;10.356;2023-05-10T08:33:02;5.97;;;3.37;;
7045;SDS011;3564;53.326;10.356;2023-05-10T08:35:28;4.00;;;3.60;;
7045;SDS011;3564;53.326;10.356;2023-05-10T08:37:53;5.63;;;3.50;;
7045;SDS011;3564;53.326;10.356;2023-05-10T08:40:19;6.70;;;3.53;;
7045;SDS011;3564;53.326;10.356;2023-05-10T08:42:51;4.60;;;3.77;;
7045;SDS011;3564;53.326;10.356;2023-05-10T08:45:25;5.37;;;3.60;;
7045;SDS011;3564;53.326;10.356;2023-05-10T08:47:53;5.40;;;3.97;;
7045;SDS011;3564;53.326;10.356;2023-05-10T08:50:19;8.33;;;3.90;;
7045;SDS011;3564;53.326;10.356;2023-05-10T08:52:47;4.63;;;4.23;;
7045;SDS011;3564;53.326;10.356;2023-05-10T08:55:16;8.10;;;3.93;;
7045;SDS011;3564;53.326;10.356;2023-05-10T08:57:42;17.97;;;4.80;;
7045;SDS011;3564;53.326;10.356;2023-05-10T09:00:07;4.17;;;3.50;;
7045;SDS011;3564;53.326;10.356;2023-05-10T09:02:34;4.53;;;3.93;;
7045;SDS011;3564;53.326;10.356;2023-05-10T09:05:01;4.40;;;4.00;;
7045;SDS011;3564;53.326;10.356;2023-05-10T09:07:29;4.17;;;3.73;;
7045;SDS011;3564;53.326;10.356;2023-05-10T09:09:55;5.73;;;4.10;;
7045;SDS011;3564;53.326;10.356;2023-05-10T09:12:21;5.10;;;3.83;;
7045;SDS011;3564;53.326;10.356;2023-05-10T09:14:47;3.93;;;3.43;;
7045;SDS011;3564;53.326;10.356;2023-05-10T09:17:15;4.63;;;4.10;;
7045;SDS011;3564;53.326;10.356;2023-05-10T09:19:41;4.13;;;3.50;;
7045;SDS011;3564;53.326;10.356;2023-05-10T09:22:06;5.17;;;3.60;;
7045;SDS011;3564;53.326;10.356;2023-05-10T09:24:32;5.00;;;4.50;;
7045;SDS011;3564;53.326;10.356;2023-05-10T09:26:57;4.07;;;3.67;;
7045;SDS011;3564;53.326;10.356;2023-05-10T09:29:23;4.13;;;3.70;;
7045;SDS011;3564;53.326;10.356;2023-05-10T09:31:50;5.80;;;4.03;;
7045;SDS011;3564;53.326;10.356;2023-05-10T09:34:17;6.80;;;4.07;;
7045;SDS011;3564;53.326;10.356;2023-05-10T09:36:54;5.67;;;3.87;;
7045;SDS011;3564;53.326;10.356;2023-05-10T09:39:28;5.37;;;4.67;;
7045;SDS011;3564;53.326;10.356;2023-05-10T09:41:57;4.47;;;4.00;;
7045;SDS011;3564;53.326;10.356;2023-05-10T09:44:25;5.20;;;4.10;;
7045;SDS011;3564;53.326;10.356;2023-05-10T09:46:51;7.90;;;4.77;;
7045;SDS011;3564;53.326;10.356;2023-05-10T09:49:18;4.67;;;4.20;;
7045;SDS011;3564;53.326;10.356;2023-05-10T09:51:45;5.97;;;4.20;;
7045;SDS011;3564;53.326;10.356;2023-05-10T09:54:12;5.90;;;4.57;;
7045;SDS011;3564;53.326;10.356;2023-05-10T09:56:40;5.53;;;4.00;;
7045;SDS011;3564;53.326;10.356;2023-05-10T09:59:06;6.00;;;4.17;;
7045;SDS011;3564;53.326;10.356;2023-05-10T10:01:35;5.67;;;4.40;;
7045;SDS011;3564;53.326;10.356;2023-05-10T10:04:10;6.73;;;4.47;;
7045;SDS011;3564;53.326;10.356;2023-05-10T10:06:39;7.70;;;4.83;;
7045;SDS011;3564;53.326;10.356;2023-05-10T10:09:08;8.93;;;4.47;;
7045;SDS011;3564;53.326;10.356;2023-05-10T10:11:35;7.37;;;4.83;;
7045;SDS011;3564;53.326;10.356;2023-05-10T10:14:02;7.33;;;4.80;;
7045;SDS011;3564;53.326;10.356;2023-05-10T10:16:30;5.13;;;4.63;;
7045;SDS011;3564;53.326;10.356;2023-05-10T10:18:57;5.17;;;3.83;;
7045;SDS011;3564;53.326;10.356;2023-05-10T10:21:24;4.93;;;4.47;;
7045;SDS011;3564;53.326;10.356;2023-05-10T10:23:50;7.10;;;5.27;;
7045;SDS011;3564;53.326;10.356;2023-05-10T10:26:17;5.70;;;4.73;;
7045;SDS011;3564;53.326;10.356;2023-05-10T10:34:44;5.87;;;5.37;;
7045;SDS011;3564;53.326;10.356;2023-05-10T10:37:10;6.47;;;5.17;;
7045;SDS011;3564;53.326;10.356;2023-05-10T10:39:36;7.43;;;5.87;;
7045;SDS011;3564;53.326;10.356;2023-05-10T10:42:04;7.07;;;5.40;;
7045;SDS011;3564;53.326;10.356;2023-05-10T10:49:50;6.40;;;5.63;;
7045;SDS011;3564;53.326;10.356;2023-05-10T10:52:28;6.10;;;5.50;;
7045;SDS011;3564;53.326;10.356;2023-05-10T10:55:09;6.90;;;5.60;;
7045;SDS011;3564;53.326;10.356;2023-05-10T11:02:52;6.80;;;5.53;;
7045;SDS011;3564;53.326;10.356;2023-05-10T11:11:16;6.80;;;6.20;;
7045;SDS011;3564;53.326;10.356;2023-05-10T11:13:45;7.17;;;5.93;;
7045;SDS011;3564;53.326;10.356;2023-05-10T11:16:24;6.80;;;6.10;;
7045;SDS011;3564;53.326;10.356;2023-05-10T11:19:00;7.60;;;6.23;;
7045;SDS011;3564;53.326;10.356;2023-05-10T11:21:27;8.23;;;6.17;;
7045;SDS011;3564;53.326;10.356;2023-05-10T11:23:54;6.97;;;6.27;;
7045;SDS011;3564;53.326;10.356;2023-05-10T11:26:22;7.30;;;6.60;;
7045;SDS011;3564;53.326;10.356;2023-05-10T11:28:50;7.57;;;6.40;;
7045;SDS011;3564;53.326;10.356;2023-05-10T11:31:21;7.60;;;6.40;;
7045;SDS011;3564;53.326;10.356;2023-05-10T11:33:48;7.83;;;6.63;;
7045;SDS011;3564;53.326;10.356;2023-05-10T11:36:16;7.20;;;6.50;;
7045;SDS011;3564;53.326;10.356;2023-05-10T11:38:51;7.23;;;6.53;;
7045;SDS011;3564;53.326;10.356;2023-05-10T11:41:17;7.63;;;6.93;;
7045;SDS011;3564;53.326;10.356;2023-05-10T11:43:45;7.67;;;6.50;;
7045;SDS011;3564;53.326;10.356;2023-05-10T11:46:14;8.70;;;7.50;;
7045;SDS011;3564;53.326;10.356;2023-05-10T11:48:41;8.40;;;7.60;;
7045;SDS011;3564;53.326;10.356;2023-05-10T11:51:07;7.47;;;6.77;;
7045;SDS011;3564;53.326;10.356;2023-05-10T11:53:33;7.87;;;7.13;;
7045;SDS011;3564;53.326;10.356;2023-05-10T11:56:03;8.93;;;7.83;;
7045;SDS011;3564;53.326;10.356;2023-05-10T11:58:32;8.97;;;7.13;;
7045;SDS011;3564;53.326;10.356;2023-05-10T12:00:59;7.53;;;6.70;;
7045;SDS011;3564;53.326;10.356;2023-05-10T12:03:25;7.57;;;6.67;;
7045;SDS011;3564;53.326;10.356;2023-05-10T12:05:51;6.67;;;6.07;;
7045;SDS011;3564;53.326;10.356;2023-05-10T12:08:20;7.63;;;6.93;;
7045;SDS011;3564;53.326;10.356;2023-05-10T12:10:52;7.23;;;6.53;;
7045;SDS011;3564;53.326;10.356;2023-05-10T12:13:19;7.23;;;6.47;;
7045;SDS011;3564;53.326;10.356;2023-05-10T12:15:46;8.47;;;7.07;;
7045;SDS011;3564;53.326;10.356;2023-05-10T12:18:12;7.80;;;6.77;;
7045;SDS011;3564;53.326;10.356;2023-05-10T12:20:38;9.17;;;7.77;;
7045;SDS011;3564;53.326;10.356;2023-05-10T12:23:04;9.17;;;7.97;;
7045;SDS011;3564;53.326;10.356;2023-05-10T12:25:33;7.33;;;6.37;;
7045;SDS011;3564;53.326;10.356;2023-05-10T12:28:00;9.63;;;6.67;;
7045;SDS011;3564;53.326;10.356;2023-05-10T12:30:30;8.87;;;7.43;;
7045;SDS011;3564;53.326;10.356;2023-05-10T12:33:01;8.23;;;7.43;;
7045;SDS011;3564;53.326;10.356;2023-05-10T12:35:48;8.40;;;7.47;;
7045;SDS011;3564;53.326;10.356;2023-05-10T12:38:25;8.03;;;7.23;;
7045;SDS011;3564;53.326;10.356;2023-05-10T12:40:57;7.50;;;6.80;;
7045;SDS011;3564;53.326;10.356;2023-05-10T12:43:24;6.33;;;5.73;;
7045;SDS011;3564;53.326;10.356;2023-05-10T12:45:49;6.43;;;5.83;;
7045;SDS011;3564;53.326;10.356;2023-05-10T12:48:16;5.53;;;5.03;;
7045;SDS011;3564;53.326;10.356;2023-05-10T12:50:42;6.17;;;5.57;;
7045;SDS011;3564;53.326;10.356;2023-05-10T12:53:07;4.93;;;4.43;;
7045;SDS011;3564;53.326;10.356;2023-05-10T12:55:33;6.33;;;5.73;;
7045;SDS011;3564;53.326;10.356;2023-05-10T12:57:59;6.47;;;5.87;;
7045;SDS011;3564;53.326;10.356;2023-05-10T13:00:25;6.40;;;5.50;;
7045;SDS011;3564;53.326;10.356;2023-05-10T13:02:50;6.73;;;5.87;;
7045;SDS011;3564;53.326;10.356;2023-05-10T13:05:17;6.07;;;5.57;;
7045;SDS011;3564;53.326;10.356;2023-05-10T13:07:42;6.53;;;5.80;;
7045;SDS011;3564;53.326;10.356;2023-05-10T13:10:08;6.47;;;5.87;;
7045;SDS011;3564;53.326;10.356;2023-05-10T13:12:34;7.10;;;6.43;;
7045;SDS011;3564;53.326;10.356;2023-05-10T13:15:00;6.93;;;6.33;;
7045;SDS011;3564;53.326;10.356;2023-05-10T13:17:26;6.80;;;6.10;;
7045;SDS011;3564;53.326;10.356;2023-05-10T13:19:51;6.13;;;5.57;;
7045;SDS011;3564;53.326;10.356;2023-05-10T13:22:17;7.93;;;6.53;;
7045;SDS011;3564;53.326;10.356;2023-05-10T13:24:42;6.17;;;5.60;;
7045;SDS011;3564;53.326;10.356;2023-05-10T13:27:08;7.27;;;6.57;;
7045;SDS011;3564;53.326;10.356;2023-05-10T13:29:33;10.50;;;6.30;;
7045;SDS011;3564;53.326;10.356;2023-05-10T13:31:59;6.73;;;6.13;;
7045;SDS011;3564;53.326;10.356;2023-05-10T13:34:25;6.67;;;6.07;;
7045;SDS011;3564;53.326;10.356;2023-05-10T13:36:51;6.47;;;5.87;;
7045;SDS011;3564;53.326;10.356;2023-05-10T13:39:18;6.00;;;5.40;;
7045;SDS011;3564;53.326;10.356;2023-05-10T13:41:45;5.43;;;4.93;;
7045;SDS011;3564;53.326;10.356;2023-05-10T13:44:11;5.77;;;5.27;;
7045;SDS011;3564;53.326;10.356;2023-05-10T13:46:38;5.40;;;4.90;;
7045;SDS011;3564;53.326;10.356;2023-05-10T13:49:05;5.77;;;5.17;;
7045;SDS011;3564;53.326;10.356;2023-05-10T13:51:30;5.80;;;5.30;;
7045;SDS011;3564;53.326;10.356;2023-05-10T13:53:56;5.77;;;5.27;;
7045;SDS011;3564;53.326;10.356;2023-05-10T13:56:22;5.30;;;4.80;;
7045;SDS011;3564;53.326;10.356;2023-05-10T13:58:48;4.87;;;4.47;;
7045;SDS011;3564;53.326;10.356;2023-05-10T14:01:14;6.00;;;4.67;;
7045;SDS011;3564;53.326;10.356;2023-05-10T14:03:41;4.90;;;4.50;;
7045;SDS011;3564;53.326;10.356;2023-05-10T14:06:07;6.03;;;5.43;;
7045;SDS011;3564;53.326;10.356;2023-05-10T14:08:33;4.90;;;4.27;;
7045;SDS011;3564;53.326;10.356;2023-05-10T14:11:00;4.23;;;3.90;;
7045;SDS011;3564;53.326;10.356;2023-05-10T14:13:26;4.50;;;4.10;;
7045;SDS011;3564;53.326;10.356;2023-05-10T14:15:53;4.77;;;4.27;;
7045;SDS011;3564;53.326;10.356;2023-05-10T14:18:19;3.83;;;3.53;;
7045;SDS011;3564;53.326;10.356;2023-05-10T14:20:45;4.57;;;4.13;;
7045;SDS011;3564;53.326;10.356;2023-05-10T14:23:14;4.93;;;4.43;;
7045;SDS011;3564;53.326;10.356;2023-05-10T14:25:40;4.77;;;4.37;;
7045;SDS011;3564;53.326;10.356;2023-05-10T14:28:05;4.93;;;4.53;;
7045;SDS011;3564;53.326;10.356;2023-05-10T14:30:31;4.33;;;3.83;;
7045;SDS011;3564;53.326;10.356;2023-05-10T14:32:59;3.93;;;3.53;;
7045;SDS011;3564;53.326;10.356;2023-05-10T14:35:26;3.73;;;3.43;;
7045;SDS011;3564;53.326;10.356;2023-05-10T14:37:53;4.53;;;4.10;;
7045;SDS011;3564;53.326;10.356;2023-05-10T14:40:19;4.30;;;3.90;;
7045;SDS011;3564;53.326;10.356;2023-05-10T14:42:45;3.57;;;3.27;;
7045;SDS011;3564;53.326;10.356;2023-05-10T14:45:11;4.83;;;3.60;;
7045;SDS011;3564;53.326;10.356;2023-05-10T14:47:37;5.03;;;3.97;;
7045;SDS011;3564;53.326;10.356;2023-05-10T14:50:03;3.80;;;3.50;;
7045;SDS011;3564;53.326;10.356;2023-05-10T14:52:28;4.23;;;3.83;;
7045;SDS011;3564;53.326;10.356;2023-05-10T14:54:54;4.90;;;3.93;;
7045;SDS011;3564;53.326;10.356;2023-05-10T14:57:20;4.13;;;3.30;;
7045;SDS011;3564;53.326;10.356;2023-05-10T14:59:45;6.10;;;4.27;;
7045;SDS011;3564;53.326;10.356;2023-05-10T15:02:12;3.80;;;3.50;;
7045;SDS011;3564;53.326;10.356;2023-05-10T15:04:38;4.27;;;3.37;;
7045;SDS011;3564;53.326;10.356;2023-05-10T15:07:04;4.77;;;4.27;;
7045;SDS011;3564;53.326;10.356;2023-05-10T15:09:29;3.80;;;3.50;;
7045;SDS011;3564;53.326;10.356;2023-05-10T15:11:55;4.57;;;3.90;;
7045;SDS011;3564;53.326;10.356;2023-05-10T15:14:21;3.80;;;3.50;;
7045;SDS011;3564;53.326;10.356;2023-05-10T15:16:47;3.90;;;3.37;;
7045;SDS011;3564;53.326;10.356;2023-05-10T15:19:12;3.80;;;3.50;;
7045;SDS011;3564;53.326;10.356;2023-05-10T15:21:38;3.20;;;2.90;;
7045;SDS011;3564;53.326;10.356;2023-05-10T15:24:04;3.50;;;3.20;;
7045;SDS011;3564;53.326;10.356;2023-05-10T15:26:33;3.13;;;2.90;;
7045;SDS011;3564;53.326;10.356;2023-05-10T15:28:59;3.23;;;2.93;;
7045;SDS011;3564;53.326;10.356;2023-05-10T15:31:24;2.93;;;2.73;;
7045;SDS011;3564;53.326;10.356;2023-05-10T15:33:50;2.77;;;2.53;;
7045;SDS011;3564;53.326;10.356;2023-05-10T15:36:21;3.77;;;3.37;;
7045;SDS011;3564;53.326;10.356;2023-05-10T15:38:47;3.47;;;3.17;;
7045;SDS011;3564;53.326;10.356;2023-05-10T15:41:12;3.93;;;2.80;;
7045;SDS011;3564;53.326;10.356;2023-05-10T15:43:38;3.50;;;3.20;;